sensor_id;sensor_type;location;lat;lon;timestamp;temperature;humidity
21047;DHT22;10682;50.874;3.656;2023-04-24T00:02:07;9.90;99.90
21047;DHT22;10682;50.874;3.656;2023-04-24T00:04:37;9.90;99.90
21047;DHT22;10682;50.874;3.656;2023-04-24T00:07:07;9.90;99.90
21047;DHT22;10682;50.874;3.656;2023-04-24T00:09:35;10.00;99.90
21047;DHT22;10682;50.874;3.656;2023-04-24T00:12:02;9.90;99.90
21047;DHT22;10682;50.874;3.656;2023-04-24T00:14:36;9.90;99.90
21047;DHT22;10682;50.874;3.656;2023-04-24T00:17:02;9.90;99.90
21047;DHT22;10682;50.874;3.656;2023-04-24T00:19:30;9.90;99.90
21047;DHT22;10682;50.874;3.656;2023-04-24T00:21:57;9.90;99.90
21047;DHT22;10682;50.874;3.656;2023-04-24T00:24:24;9.80;99.90
21047;DHT22;10682;50.874;3.656;2023-04-24T00:26:51;9.80;99.90
21047;DHT22;10682;50.874;3.656;2023-04-24T00:29:18;9.70;99.90
21047;DHT22;10682;50.874;3.656;2023-04-24T00:31:45;9.80;99.90
21047;DHT22;10682;50.874;3.656;2023-04-24T00:34:12;9.70;99.90
21047;DHT22;10682;50.874;3.656;2023-04-24T00:36:40;9.70;99.90
21047;DHT22;10682;50.874;3.656;2023-04-24T00:39:07;9.70;99.90
21047;DHT22;10682;50.874;3.656;2023-04-24T00:41:37;9.60;99.90
21047;DHT22;10682;50.874;3.656;2023-04-24T00:44:04;9.50;99.90
21047;DHT22;10682;50.874;3.656;2023-04-24T00:46:31;9.50;99.90
21047;DHT22;10682;50.874;3.656;2023-04-24T00:48:59;9.50;99.90
21047;DHT22;10682;50.874;3.656;2023-04-24T00:51:26;9.50;99.90
21047;DHT22;10682;50.874;3.656;2023-04-24T00:53:54;9.50;99.90
21047;DHT22;10682;50.874;3.656;2023-04-24T00:56:24;9.40;99.90
21047;DHT22;10682;50.874;3.656;2023-04-24T00:58:51;9.40;99.90
21047;DHT22;10682;50.874;3.656;2023-04-24T01:01:22;9.40;99.90
21047;DHT22;10682;50.874;3.656;2023-04-24T01:03:50;9.30;99.90
21047;DHT22;10682;50.874;3.656;2023-04-24T01:06:22;9.20;99.90
21047;DHT22;10682;50.874;3.656;2023-04-24T01:08:50;9.20;99.90
21047;DHT22;10682;50.874;3.656;2023-04-24T01:11:17;9.10;99.90
21047;DHT22;10682;50.874;3.656;2023-04-24T01:13:45;9.10;99.90
21047;DHT22;10682;50.874;3.656;2023-04-24T01:16:13;9.10;99.90
21047;DHT22;10682;50.874;3.656;2023-04-24T01:18:41;9.10;99.90
21047;DHT22;10682;50.874;3.656;2023-04-24T01:21:09;9.10;99.90
21047;DHT22;10682;50.874;3.656;2023-04-24T01:23:40;9.10;99.90
21047;DHT22;10682;50.874;3.656;2023-04-24T01:26:07;9.10;99.90
21047;DHT22;10682;50.874;3.656;2023-04-24T01:28:34;9.10;99.90
21047;DHT22;10682;50.874;3.656;2023-04-24T01:31:01;9.20;99.90
21047;DHT22;10682;50.874;3.656;2023-04-24T01:33:28;9.20;99.90
21047;DHT22;10682;50.874;3.656;2023-04-24T01:35:56;9.20;99.90
21047;DHT22;10682;50.874;3.656;2023-04-24T01:38:24;9.30;99.90
21047;DHT22;10682;50.874;3.656;2023-04-24T01:40:51;9.30;99.90
21047;DHT22;10682;50.874;3.656;2023-04-24T01:43:19;9.20;99.90
21047;DHT22;10682;50.874;3.656;2023-04-24T01:45:46;9.30;99.90
21047;DHT22;10682;50.874;3.656;2023-04-24T01:48:13;9.20;99.90
21047;DHT22;10682;50.874;3.656;2023-04-24T01:50:41;9.20;99.90
21047;DHT22;10682;50.874;3.656;2023-04-24T01:53:08;9.20;99.90
21047;DHT22;10682;50.874;3.656;2023-04-24T01:55:35;9.20;99.90
21047;DHT22;10682;50.874;3.656;2023-04-24T01:58:02;9.20;99.90
21047;DHT22;10682;50.874;3.656;2023-04-24T02:00:29;9.10;99.90
21047;DHT22;10682;50.874;3.656;2023-04-24T02:02:56;9.10;99.90
21047;DHT22;10682;50.874;3.656;2023-04-24T02:05:23;9.00;99.90
21047;DHT22;10682;50.874;3.656;2023-04-24T02:07:51;9.00;99.90
21047;DHT22;10682;50.874;3.656;2023-04-24T02:10:18;9.00;99.90
21047;DHT22;10682;50.874;3.656;2023-04-24T02:12:45;9.00;99.90
21047;DHT22;10682;50.874;3.656;2023-04-24T02:15:12;8.90;99.90
21047;DHT22;10682;50.874;3.656;2023-04-24T02:17:39;8.90;99.90
21047;DHT22;10682;50.874;3.656;2023-04-24T02:20:07;8.90;99.90
21047;DHT22;10682;50.874;3.656;2023-04-24T02:22:34;8.90;99.90
21047;DHT22;10682;50.874;3.656;2023-04-24T02:25:01;8.90;99.90
21047;DHT22;10682;50.874;3.656;2023-04-24T02:27:28;8.90;99.90
21047;DHT22;10682;50.874;3.656;2023-04-24T02:29:55;8.90;99.90
21047;DHT22;10682;50.874;3.656;2023-04-24T02:32:22;9.00;99.90
21047;DHT22;10682;50.874;3.656;2023-04-24T02:34:50;8.90;99.90
21047;DHT22;10682;50.874;3.656;2023-04-24T02:37:17;8.90;99.90
21047;DHT22;10682;50.874;3.656;2023-04-24T02:39:44;8.90;99.90
21047;DHT22;10682;50.874;3.656;2023-04-24T02:42:11;8.90;99.90
21047;DHT22;10682;50.874;3.656;2023-04-24T02:44:38;9.00;99.90
21047;DHT22;10682;50.874;3.656;2023-04-24T02:47:05;9.00;99.90
21047;DHT22;10682;50.874;3.656;2023-04-24T02:49:32;9.00;99.90
21047;DHT22;10682;50.874;3.656;2023-04-24T02:51:59;9.00;99.90
21047;DHT22;10682;50.874;3.656;2023-04-24T02:54:26;9.00;99.90
21047;DHT22;10682;50.874;3.656;2023-04-24T02:56:53;9.00;99.90
21047;DHT22;10682;50.874;3.656;2023-04-24T02:59:20;9.00;99.90
21047;DHT22;10682;50.874;3.656;2023-04-24T03:01:47;9.10;99.90
21047;DHT22;10682;50.874;3.656;2023-04-24T03:04:14;9.10;99.90
21047;DHT22;10682;50.874;3.656;2023-04-24T03:06:42;9.10;99.90
21047;DHT22;10682;50.874;3.656;2023-04-24T03:09:09;9.10;99.90
21047;DHT22;10682;50.874;3.656;2023-04-24T03:11:39;9.10;99.90
21047;DHT22;10682;50.874;3.656;2023-04-24T03:14:07;9.10;99.90
21047;DHT22;10682;50.874;3.656;2023-04-24T03:16:34;9.10;99.90
21047;DHT22;10682;50.874;3.656;2023-04-24T03:19:01;9.10;99.90
21047;DHT22;10682;50.874;3.656;2023-04-24T03:21:29;9.10;99.90
21047;DHT22;10682;50.874;3.656;2023-04-24T03:23:57;9.10;99.90
21047;DHT22;10682;50.874;3.656;2023-04-24T03:26:24;9.10;99.90
21047;DHT22;10682;50.874;3.656;2023-04-24T03:28:51;9.10;99.90
21047;DHT22;10682;50.874;3.656;2023-04-24T03:31:18;9.10;99.90
21047;DHT22;10682;50.874;3.656;2023-04-24T03:33:47;9.10;99.90
21047;DHT22;10682;50.874;3.656;2023-04-24T03:36:14;9.10;99.90
21047;DHT22;10682;50.874;3.656;2023-04-24T03:38:41;9.00;99.90
21047;DHT22;10682;50.874;3.656;2023-04-24T03:41:08;9.00;99.90
21047;DHT22;10682;50.874;3.656;2023-04-24T03:43:35;9.00;99.90
21047;DHT22;10682;50.874;3.656;2023-04-24T03:46:03;9.00;99.90
21047;DHT22;10682;50.874;3.656;2023-04-24T03:48:30;9.00;99.90
21047;DHT22;10682;50.874;3.656;2023-04-24T03:50:57;9.10;99.90
21047;DHT22;10682;50.874;3.656;2023-04-24T03:53:24;9.00;99.90
21047;DHT22;10682;50.874;3.656;2023-04-24T03:55:51;8.90;99.90
21047;DHT22;10682;50.874;3.656;2023-04-24T03:58:18;8.90;99.90
21047;DHT22;10682;50.874;3.656;2023-04-24T04:00:45;8.90;99.90
21047;DHT22;10682;50.874;3.656;2023-04-24T04:03:14;8.90;99.90
21047;DHT22;10682;50.874;3.656;2023-04-24T04:05:41;8.90;99.90
21047;DHT22;10682;50.874;3.656;2023-04-24T04:08:08;8.90;99.90
21047;DHT22;10682;50.874;3.656;2023-04-24T04:10:35;8.90;99.90
21047;DHT22;10682;50.874;3.656;2023-04-24T04:13:02;8.90;99.90
21047;DHT22;10682;50.874;3.656;2023-04-24T04:15:29;8.90;99.90
21047;DHT22;10682;50.874;3.656;2023-04-24T04:17:56;8.90;99.90
21047;DHT22;10682;50.874;3.656;2023-04-24T04:20:24;8.90;99.90
21047;DHT22;10682;50.874;3.656;2023-04-24T04:22:51;8.80;99.90
21047;DHT22;10682;50.874;3.656;2023-04-24T04:25:18;8.80;99.90
21047;DHT22;10682;50.874;3.656;2023-04-24T04:27:46;8.80;99.90
21047;DHT22;10682;50.874;3.656;2023-04-24T04:30:18;8.80;99.90
21047;DHT22;10682;50.874;3.656;2023-04-24T04:32:45;8.80;99.90
21047;DHT22;10682;50.874;3.656;2023-04-24T04:35:12;8.70;99.90
21047;DHT22;10682;50.874;3.656;2023-04-24T04:37:39;8.70;99.90
21047;DHT22;10682;50.874;3.656;2023-04-24T04:40:07;8.70;99.90
21047;DHT22;10682;50.874;3.656;2023-04-24T04:42:38;8.60;99.90
21047;DHT22;10682;50.874;3.656;2023-04-24T04:45:08;8.60;99.90
21047;DHT22;10682;50.874;3.656;2023-04-24T04:47:35;8.60;99.90
21047;DHT22;10682;50.874;3.656;2023-04-24T04:50:03;8.50;99.90
21047;DHT22;10682;50.874;3.656;2023-04-24T04:52:31;8.50;99.90
21047;DHT22;10682;50.874;3.656;2023-04-24T04:55:00;8.50;99.90
21047;DHT22;10682;50.874;3.656;2023-04-24T04:57:27;8.50;99.90
21047;DHT22;10682;50.874;3.656;2023-04-24T04:59:54;8.50;99.90
21047;DHT22;10682;50.874;3.656;2023-04-24T05:02:21;8.50;99.90
21047;DHT22;10682;50.874;3.656;2023-04-24T05:04:48;8.50;99.90
21047;DHT22;10682;50.874;3.656;2023-04-24T05:07:16;8.50;99.90
21047;DHT22;10682;50.874;3.656;2023-04-24T05:09:46;8.50;99.90
21047;DHT22;10682;50.874;3.656;2023-04-24T05:12:13;8.50;99.90
21047;DHT22;10682;50.874;3.656;2023-04-24T05:14:40;8.50;99.90
21047;DHT22;10682;50.874;3.656;2023-04-24T05:17:07;8.50;99.90
21047;DHT22;10682;50.874;3.656;2023-04-24T05:19:34;8.60;99.90
21047;DHT22;10682;50.874;3.656;2023-04-24T05:22:04;8.60;99.90
21047;DHT22;10682;50.874;3.656;2023-04-24T05:24:34;8.60;99.90
21047;DHT22;10682;50.874;3.656;2023-04-24T05:27:02;8.60;99.90
21047;DHT22;10682;50.874;3.656;2023-04-24T05:29:31;8.60;99.90
21047;DHT22;10682;50.874;3.656;2023-04-24T05:32:00;8.60;99.90
21047;DHT22;10682;50.874;3.656;2023-04-24T05:34:27;8.60;99.90
21047;DHT22;10682;50.874;3.656;2023-04-24T05:36:54;8.70;99.90
21047;DHT22;10682;50.874;3.656;2023-04-24T05:39:21;8.70;99.90
21047;DHT22;10682;50.874;3.656;2023-04-24T05:41:48;8.70;99.90
21047;DHT22;10682;50.874;3.656;2023-04-24T05:44:15;8.80;99.90
21047;DHT22;10682;50.874;3.656;2023-04-24T05:46:42;8.80;99.90
21047;DHT22;10682;50.874;3.656;2023-04-24T05:49:13;8.80;99.90
21047;DHT22;10682;50.874;3.656;2023-04-24T05:51:41;8.80;99.90
21047;DHT22;10682;50.874;3.656;2023-04-24T05:54:08;8.80;99.90
21047;DHT22;10682;50.874;3.656;2023-04-24T05:56:35;8.80;99.90
21047;DHT22;10682;50.874;3.656;2023-04-24T05:59:08;8.80;99.90
21047;DHT22;10682;50.874;3.656;2023-04-24T06:01:35;8.90;99.90
21047;DHT22;10682;50.874;3.656;2023-04-24T06:04:03;8.90;99.90
21047;DHT22;10682;50.874;3.656;2023-04-24T06:06:31;8.90;99.90
21047;DHT22;10682;50.874;3.656;2023-04-24T06:08:59;9.00;99.90
21047;DHT22;10682;50.874;3.656;2023-04-24T06:11:26;9.00;99.90
21047;DHT22;10682;50.874;3.656;2023-04-24T06:13:53;9.10;99.90
21047;DHT22;10682;50.874;3.656;2023-04-24T06:16:20;9.10;99.90
21047;DHT22;10682;50.874;3.656;2023-04-24T06:18:47;9.20;99.90
21047;DHT22;10682;50.874;3.656;2023-04-24T06:21:15;9.20;99.90
21047;DHT22;10682;50.874;3.656;2023-04-24T06:23:43;9.10;99.90
21047;DHT22;10682;50.874;3.656;2023-04-24T06:26:10;9.20;99.90
21047;DHT22;10682;50.874;3.656;2023-04-24T06:28:37;9.20;99.90
21047;DHT22;10682;50.874;3.656;2023-04-24T06:31:04;9.40;99.90
21047;DHT22;10682;50.874;3.656;2023-04-24T06:33:31;9.40;99.90
21047;DHT22;10682;50.874;3.656;2023-04-24T06:36:01;9.50;99.90
21047;DHT22;10682;50.874;3.656;2023-04-24T06:38:28;9.50;99.90
21047;DHT22;10682;50.874;3.656;2023-04-24T06:40:57;9.60;99.90
21047;DHT22;10682;50.874;3.656;2023-04-24T06:43:24;9.60;99.90
21047;DHT22;10682;50.874;3.656;2023-04-24T06:45:51;9.70;99.90
21047;DHT22;10682;50.874;3.656;2023-04-24T06:48:18;9.80;99.90
21047;DHT22;10682;50.874;3.656;2023-04-24T06:50:45;10.00;99.90
21047;DHT22;10682;50.874;3.656;2023-04-24T06:53:13;10.10;99.90
21047;DHT22;10682;50.874;3.656;2023-04-24T06:55:41;10.00;99.90
21047;DHT22;10682;50.874;3.656;2023-04-24T06:58:09;9.90;99.90
21047;DHT22;10682;50.874;3.656;2023-04-24T07:00:37;9.90;99.90
21047;DHT22;10682;50.874;3.656;2023-04-24T07:03:04;9.80;99.90
21047;DHT22;10682;50.874;3.656;2023-04-24T07:05:34;9.70;99.90
21047;DHT22;10682;50.874;3.656;2023-04-24T07:08:02;9.70;99.90
21047;DHT22;10682;50.874;3.656;2023-04-24T07:10:29;9.70;99.90
21047;DHT22;10682;50.874;3.656;2023-04-24T07:12:56;9.60;99.90
21047;DHT22;10682;50.874;3.656;2023-04-24T07:15:23;9.50;99.90
21047;DHT22;10682;50.874;3.656;2023-04-24T07:17:53;9.50;99.90
21047;DHT22;10682;50.874;3.656;2023-04-24T07:20:20;9.60;99.90
21047;DHT22;10682;50.874;3.656;2023-04-24T07:22:47;9.70;99.90
21047;DHT22;10682;50.874;3.656;2023-04-24T07:25:15;9.80;99.90
21047;DHT22;10682;50.874;3.656;2023-04-24T07:27:42;9.80;99.90
21047;DHT22;10682;50.874;3.656;2023-04-24T07:30:10;9.80;99.90
21047;DHT22;10682;50.874;3.656;2023-04-24T07:32:37;9.80;99.90
21047;DHT22;10682;50.874;3.656;2023-04-24T07:35:04;9.80;99.90
21047;DHT22;10682;50.874;3.656;2023-04-24T07:37:32;9.80;99.90
21047;DHT22;10682;50.874;3.656;2023-04-24T07:39:59;9.90;99.90
21047;DHT22;10682;50.874;3.656;2023-04-24T07:42:26;10.10;99.90
21047;DHT22;10682;50.874;3.656;2023-04-24T07:44:57;10.20;99.90
21047;DHT22;10682;50.874;3.656;2023-04-24T07:47:24;10.40;99.90
21047;DHT22;10682;50.874;3.656;2023-04-24T07:49:51;10.50;99.90
21047;DHT22;10682;50.874;3.656;2023-04-24T07:52:18;11.00;99.90
21047;DHT22;10682;50.874;3.656;2023-04-24T07:54:45;11.00;99.90
21047;DHT22;10682;50.874;3.656;2023-04-24T07:57:12;11.40;99.90
21047;DHT22;10682;50.874;3.656;2023-04-24T07:59:39;11.60;99.90
21047;DHT22;10682;50.874;3.656;2023-04-24T08:02:06;12.10;99.90
21047;DHT22;10682;50.874;3.656;2023-04-24T08:04:33;12.60;99.90
21047;DHT22;10682;50.874;3.656;2023-04-24T08:07:00;12.40;99.90
21047;DHT22;10682;50.874;3.656;2023-04-24T08:09:27;12.10;99.90
21047;DHT22;10682;50.874;3.656;2023-04-24T08:11:54;11.60;99.90
21047;DHT22;10682;50.874;3.656;2023-04-24T08:14:21;11.50;99.90
21047;DHT22;10682;50.874;3.656;2023-04-24T08:16:48;11.30;99.90
21047;DHT22;10682;50.874;3.656;2023-04-24T08:19:15;11.30;99.90
21047;DHT22;10682;50.874;3.656;2023-04-24T08:21:42;11.30;99.90
21047;DHT22;10682;50.874;3.656;2023-04-24T08:24:09;11.10;99.90
21047;DHT22;10682;50.874;3.656;2023-04-24T08:26:36;11.10;99.90
21047;DHT22;10682;50.874;3.656;2023-04-24T08:29:04;11.10;99.90
21047;DHT22;10682;50.874;3.656;2023-04-24T08:31:31;11.00;99.90
21047;DHT22;10682;50.874;3.656;2023-04-24T08:33:58;11.10;99.90
21047;DHT22;10682;50.874;3.656;2023-04-24T08:36:28;11.10;99.90
21047;DHT22;10682;50.874;3.656;2023-04-24T08:39:12;11.10;99.90
21047;DHT22;10682;50.874;3.656;2023-04-24T08:41:41;11.30;99.90
21047;DHT22;10682;50.874;3.656;2023-04-24T08:44:10;11.30;99.90
21047;DHT22;10682;50.874;3.656;2023-04-24T08:46:40;11.20;99.90
21047;DHT22;10682;50.874;3.656;2023-04-24T08:49:07;11.20;99.90
21047;DHT22;10682;50.874;3.656;2023-04-24T08:51:36;11.20;99.90
21047;DHT22;10682;50.874;3.656;2023-04-24T08:54:04;11.10;99.90
21047;DHT22;10682;50.874;3.656;2023-04-24T08:56:34;11.10;99.90
21047;DHT22;10682;50.874;3.656;2023-04-24T08:59:05;11.20;99.90
21047;DHT22;10682;50.874;3.656;2023-04-24T09:01:33;11.40;99.90
21047;DHT22;10682;50.874;3.656;2023-04-24T09:04:03;11.50;99.90
21047;DHT22;10682;50.874;3.656;2023-04-24T09:06:31;11.40;99.90
21047;DHT22;10682;50.874;3.656;2023-04-24T09:09:05;11.40;99.90
21047;DHT22;10682;50.874;3.656;2023-04-24T09:11:32;11.30;99.90
21047;DHT22;10682;50.874;3.656;2023-04-24T09:13:59;11.20;99.90
21047;DHT22;10682;50.874;3.656;2023-04-24T09:16:27;11.20;99.90
21047;DHT22;10682;50.874;3.656;2023-04-24T09:18:58;11.20;99.90
21047;DHT22;10682;50.874;3.656;2023-04-24T09:21:32;11.20;99.90
21047;DHT22;10682;50.874;3.656;2023-04-24T09:24:02;11.20;99.90
21047;DHT22;10682;50.874;3.656;2023-04-24T09:26:32;11.20;99.90
21047;DHT22;10682;50.874;3.656;2023-04-24T09:29:03;11.20;99.90
21047;DHT22;10682;50.874;3.656;2023-04-24T09:31:31;11.20;99.90
21047;DHT22;10682;50.874;3.656;2023-04-24T09:36:35;11.60;99.90
21047;DHT22;10682;50.874;3.656;2023-04-24T09:39:16;11.80;99.90
21047;DHT22;10682;50.874;3.656;2023-04-24T09:41:51;11.60;99.90
21047;DHT22;10682;50.874;3.656;2023-04-24T09:44:21;11.50;99.90
21047;DHT22;10682;50.874;3.656;2023-04-24T09:46:55;11.30;99.90
21047;DHT22;10682;50.874;3.656;2023-04-24T09:49:27;11.30;99.90
21047;DHT22;10682;50.874;3.656;2023-04-24T09:52:09;11.30;99.90
21047;DHT22;10682;50.874;3.656;2023-04-24T09:54:38;11.40;99.90
21047;DHT22;10682;50.874;3.656;2023-04-24T09:57:07;11.20;99.90
21047;DHT22;10682;50.874;3.656;2023-04-24T09:59:42;11.20;99.90
21047;DHT22;10682;50.874;3.656;2023-04-24T10:02:20;11.50;99.90
21047;DHT22;10682;50.874;3.656;2023-04-24T10:04:55;11.70;99.90
21047;DHT22;10682;50.874;3.656;2023-04-24T10:07:32;11.80;99.90
21047;DHT22;10682;50.874;3.656;2023-04-24T10:10:06;11.70;99.90
21047;DHT22;10682;50.874;3.656;2023-04-24T10:12:33;11.70;99.90
21047;DHT22;10682;50.874;3.656;2023-04-24T10:15:01;11.60;99.90
21047;DHT22;10682;50.874;3.656;2023-04-24T10:17:29;11.40;99.90
21047;DHT22;10682;50.874;3.656;2023-04-24T10:19:56;11.40;99.90
21047;DHT22;10682;50.874;3.656;2023-04-24T10:22:25;11.40;99.90
21047;DHT22;10682;50.874;3.656;2023-04-24T10:24:52;11.50;99.90
21047;DHT22;10682;50.874;3.656;2023-04-24T10:27:20;11.70;99.90
21047;DHT22;10682;50.874;3.656;2023-04-24T10:29:49;11.80;99.90
21047;DHT22;10682;50.874;3.656;2023-04-24T10:32:18;11.80;99.90
21047;DHT22;10682;50.874;3.656;2023-04-24T10:34:45;11.80;99.90
21047;DHT22;10682;50.874;3.656;2023-04-24T10:37:12;11.80;99.90
21047;DHT22;10682;50.874;3.656;2023-04-24T10:39:40;11.90;99.90
21047;DHT22;10682;50.874;3.656;2023-04-24T10:42:14;11.70;99.90
21047;DHT22;10682;50.874;3.656;2023-04-24T10:44:42;11.40;99.90
21047;DHT22;10682;50.874;3.656;2023-04-24T10:47:13;11.30;99.90
21047;DHT22;10682;50.874;3.656;2023-04-24T10:49:41;11.40;99.90
21047;DHT22;10682;50.874;3.656;2023-04-24T10:52:09;11.60;99.90
21047;DHT22;10682;50.874;3.656;2023-04-24T10:54:45;11.60;99.90
21047;DHT22;10682;50.874;3.656;2023-04-24T11:00:19;11.90;99.90
21047;DHT22;10682;50.874;3.656;2023-04-24T11:02:48;12.00;99.90
21047;DHT22;10682;50.874;3.656;2023-04-24T11:05:17;12.10;99.90
21047;DHT22;10682;50.874;3.656;2023-04-24T11:08:13;12.10;99.90
21047;DHT22;10682;50.874;3.656;2023-04-24T11:11:10;12.10;99.90
21047;DHT22;10682;50.874;3.656;2023-04-24T11:37:53;13.90;99.90
21047;DHT22;10682;50.874;3.656;2023-04-24T11:40:23;14.20;99.90
21047;DHT22;10682;50.874;3.656;2023-04-24T11:42:52;14.10;99.90
21047;DHT22;10682;50.874;3.656;2023-04-24T11:45:24;14.00;99.90
21047;DHT22;10682;50.874;3.656;2023-04-24T11:47:55;13.40;99.90
21047;DHT22;10682;50.874;3.656;2023-04-24T11:50:29;13.50;99.90
21047;DHT22;10682;50.874;3.656;2023-04-24T11:52:59;13.60;99.90
21047;DHT22;10682;50.874;3.656;2023-04-24T11:55:28;13.80;99.90
21047;DHT22;10682;50.874;3.656;2023-04-24T11:57:59;14.10;99.90
21047;DHT22;10682;50.874;3.656;2023-04-24T12:00:29;14.30;99.90
21047;DHT22;10682;50.874;3.656;2023-04-24T12:03:11;14.80;99.90
21047;DHT22;10682;50.874;3.656;2023-04-24T12:05:39;15.20;99.90
21047;DHT22;10682;50.874;3.656;2023-04-24T12:08:07;15.40;99.90
21047;DHT22;10682;50.874;3.656;2023-04-24T12:10:34;15.30;99.90
21047;DHT22;10682;50.874;3.656;2023-04-24T12:13:02;15.10;99.90
21047;DHT22;10682;50.874;3.656;2023-04-24T12:15:29;14.60;99.90
21047;DHT22;10682;50.874;3.656;2023-04-24T12:17:56;14.30;99.90
21047;DHT22;10682;50.874;3.656;2023-04-24T12:20:26;14.50;99.90
21047;DHT22;10682;50.874;3.656;2023-04-24T12:22:56;14.70;99.90
21047;DHT22;10682;50.874;3.656;2023-04-24T12:25:34;14.90;99.90
21047;DHT22;10682;50.874;3.656;2023-04-24T12:30:33;15.10;99.90
21047;DHT22;10682;50.874;3.656;2023-04-24T12:33:02;15.20;99.90
21047;DHT22;10682;50.874;3.656;2023-04-24T12:35:31;15.20;99.90
21047;DHT22;10682;50.874;3.656;2023-04-24T12:38:15;15.00;99.90
21047;DHT22;10682;50.874;3.656;2023-04-24T12:40:43;14.90;99.90
21047;DHT22;10682;50.874;3.656;2023-04-24T12:43:18;14.90;99.90
21047;DHT22;10682;50.874;3.656;2023-04-24T12:45:47;14.60;99.90
21047;DHT22;10682;50.874;3.656;2023-04-24T12:48:15;14.30;99.90
21047;DHT22;10682;50.874;3.656;2023-04-24T12:50:43;14.50;99.90
21047;DHT22;10682;50.874;3.656;2023-04-24T12:53:13;14.70;99.90
21047;DHT22;10682;50.874;3.656;2023-04-24T12:55:40;14.80;99.90
21047;DHT22;10682;50.874;3.656;2023-04-24T12:58:08;15.00;99.90
21047;DHT22;10682;50.874;3.656;2023-04-24T13:00:35;15.00;99.90
21047;DHT22;10682;50.874;3.656;2023-04-24T13:03:02;14.80;99.90
21047;DHT22;10682;50.874;3.656;2023-04-24T13:05:30;14.70;99.90
21047;DHT22;10682;50.874;3.656;2023-04-24T13:07:57;14.40;99.90
21047;DHT22;10682;50.874;3.656;2023-04-24T13:10:24;14.20;99.90
21047;DHT22;10682;50.874;3.656;2023-04-24T13:12:51;14.40;99.90
21047;DHT22;10682;50.874;3.656;2023-04-24T13:15:19;14.30;99.90
21047;DHT22;10682;50.874;3.656;2023-04-24T13:17:46;14.30;99.90
21047;DHT22;10682;50.874;3.656;2023-04-24T13:20:13;14.80;99.90
21047;DHT22;10682;50.874;3.656;2023-04-24T13:22:41;15.30;99.90
21047;DHT22;10682;50.874;3.656;2023-04-24T13:25:08;15.00;99.90
21047;DHT22;10682;50.874;3.656;2023-04-24T13:27:37;14.60;99.90
21047;DHT22;10682;50.874;3.656;2023-04-24T13:30:06;14.00;99.90
21047;DHT22;10682;50.874;3.656;2023-04-24T13:32:33;13.50;99.90
21047;DHT22;10682;50.874;3.656;2023-04-24T13:35:02;13.40;99.90
21047;DHT22;10682;50.874;3.656;2023-04-24T13:37:29;13.50;99.90
21047;DHT22;10682;50.874;3.656;2023-04-24T13:39:56;13.70;99.90
21047;DHT22;10682;50.874;3.656;2023-04-24T13:42:23;13.50;99.90
21047;DHT22;10682;50.874;3.656;2023-04-24T13:44:50;13.40;99.90
21047;DHT22;10682;50.874;3.656;2023-04-24T13:47:17;13.20;99.90
21047;DHT22;10682;50.874;3.656;2023-04-24T13:49:49;13.00;99.90
21047;DHT22;10682;50.874;3.656;2023-04-24T13:52:16;13.10;99.90
21047;DHT22;10682;50.874;3.656;2023-04-24T13:54:43;13.30;99.90
21047;DHT22;10682;50.874;3.656;2023-04-24T13:57:10;13.20;99.90
21047;DHT22;10682;50.874;3.656;2023-04-24T13:59:37;13.10;99.90
21047;DHT22;10682;50.874;3.656;2023-04-24T14:02:04;13.00;99.90
21047;DHT22;10682;50.874;3.656;2023-04-24T14:04:32;12.80;99.90
21047;DHT22;10682;50.874;3.656;2023-04-24T14:06:59;12.80;99.90
21047;DHT22;10682;50.874;3.656;2023-04-24T14:09:26;12.80;99.90
21047;DHT22;10682;50.874;3.656;2023-04-24T14:11:53;12.90;99.90
21047;DHT22;10682;50.874;3.656;2023-04-24T14:14:20;13.00;99.90
21047;DHT22;10682;50.874;3.656;2023-04-24T14:16:47;13.00;99.90
21047;DHT22;10682;50.874;3.656;2023-04-24T14:19:14;13.10;99.90
21047;DHT22;10682;50.874;3.656;2023-04-24T14:21:41;13.00;99.90
21047;DHT22;10682;50.874;3.656;2023-04-24T14:24:08;12.90;99.90
21047;DHT22;10682;50.874;3.656;2023-04-24T14:26:35;13.00;99.90
21047;DHT22;10682;50.874;3.656;2023-04-24T14:29:02;13.30;99.90
21047;DHT22;10682;50.874;3.656;2023-04-24T14:31:40;13.40;99.90
21047;DHT22;10682;50.874;3.656;2023-04-24T14:34:08;13.30;99.90
21047;DHT22;10682;50.874;3.656;2023-04-24T14:36:35;13.50;99.90
21047;DHT22;10682;50.874;3.656;2023-04-24T14:39:02;13.70;99.90
21047;DHT22;10682;50.874;3.656;2023-04-24T14:41:33;13.80;99.90
21047;DHT22;10682;50.874;3.656;2023-04-24T14:44:03;13.90;99.90
21047;DHT22;10682;50.874;3.656;2023-04-24T14:46:30;13.80;99.90
21047;DHT22;10682;50.874;3.656;2023-04-24T14:48:58;13.60;99.90
21047;DHT22;10682;50.874;3.656;2023-04-24T14:51:25;13.50;99.90
21047;DHT22;10682;50.874;3.656;2023-04-24T14:53:52;13.30;99.90
21047;DHT22;10682;50.874;3.656;2023-04-24T14:56:19;13.20;99.90
21047;DHT22;10682;50.874;3.656;2023-04-24T14:58:46;13.10;99.90
21047;DHT22;10682;50.874;3.656;2023-04-24T15:01:13;13.00;99.90
21047;DHT22;10682;50.874;3.656;2023-04-24T15:03:43;12.80;99.90
21047;DHT22;10682;50.874;3.656;2023-04-24T15:06:11;12.60;99.90
21047;DHT22;10682;50.874;3.656;2023-04-24T15:08:38;12.50;99.90
21047;DHT22;10682;50.874;3.656;2023-04-24T15:11:06;12.30;99.90
21047;DHT22;10682;50.874;3.656;2023-04-24T15:13:33;12.10;99.90
21047;DHT22;10682;50.874;3.656;2023-04-24T15:16:00;12.00;99.90
21047;DHT22;10682;50.874;3.656;2023-04-24T15:18:27;11.90;99.90
21047;DHT22;10682;50.874;3.656;2023-04-24T15:20:56;11.80;99.90
21047;DHT22;10682;50.874;3.656;2023-04-24T15:23:23;11.80;99.90
21047;DHT22;10682;50.874;3.656;2023-04-24T15:25:50;11.80;99.90
21047;DHT22;10682;50.874;3.656;2023-04-24T15:28:17;11.80;99.90
21047;DHT22;10682;50.874;3.656;2023-04-24T15:30:44;11.80;99.90
21047;DHT22;10682;50.874;3.656;2023-04-24T15:33:11;11.70;99.90
21047;DHT22;10682;50.874;3.656;2023-04-24T15:35:38;11.70;99.90
21047;DHT22;10682;50.874;3.656;2023-04-24T15:38:06;11.90;99.90
21047;DHT22;10682;50.874;3.656;2023-04-24T15:40:33;11.90;99.90
21047;DHT22;10682;50.874;3.656;2023-04-24T15:43:00;11.90;99.90
21047;DHT22;10682;50.874;3.656;2023-04-24T15:45:27;11.90;99.90
21047;DHT22;10682;50.874;3.656;2023-04-24T15:47:57;11.80;99.90
21047;DHT22;10682;50.874;3.656;2023-04-24T15:50:25;11.90;99.90
21047;DHT22;10682;50.874;3.656;2023-04-24T15:52:53;11.90;99.90
21047;DHT22;10682;50.874;3.656;2023-04-24T15:55:22;12.00;99.90
21047;DHT22;10682;50.874;3.656;2023-04-24T15:57:49;11.90;99.90
21047;DHT22;10682;50.874;3.656;2023-04-24T16:00:17;12.00;99.90
21047;DHT22;10682;50.874;3.656;2023-04-24T16:02:44;12.20;99.90
21047;DHT22;10682;50.874;3.656;2023-04-24T16:05:11;12.40;99.90
21047;DHT22;10682;50.874;3.656;2023-04-24T16:07:38;12.60;99.90
21047;DHT22;10682;50.874;3.656;2023-04-24T16:10:06;12.70;99.90
21047;DHT22;10682;50.874;3.656;2023-04-24T16:12:34;12.60;99.90
21047;DHT22;10682;50.874;3.656;2023-04-24T16:15:01;12.50;99.90
21047;DHT22;10682;50.874;3.656;2023-04-24T16:17:31;12.40;99.90